Time;durP1;ratioP1;P1;durP2;ratioP2;P2;SDS_P1;SDS_P2;PMS_P1;PMS_P2;Temp;Humidity;BMP_temperature;BMP_pressure;BME280_temperature;BME280_humidity;BME280_pressure;Samples;Min_cycle;Max_cycle;Signal;HPM_P1;HPM_P2
2023/08/26 00:00:24;;;;;;;16.98;13.00;;;;;;;;;;2090695;28;20119;-62
2023/08/26 00:01:25;;;;;;;13.90;11.15;;;;;;;;;;2090419;28;20128;-62
2023/08/26 00:02:26;;;;;;;15.13;11.60;;;;;;;;;;2090512;28;20084;-62
2023/08/26 00:03:27;;;;;;;15.15;11.93;;;;;;;;;;2090754;28;20052;-61
2023/08/26 00:04:27;;;;;;;15.82;13.02;;;;;;;;;;2090693;28;20378;-61
2023/08/26 00:05:28;;;;;;;19.73;13.90;;;;;;;;;;2090572;28;20481;-61
2023/08/26 00:06:29;;;;;;;15.32;12.88;;;;;;;;;;2090480;28;20048;-63
2023/08/26 00:07:29;;;;;;;16.52;13.77;;;;;;;;;;2090140;28;20049;-61
2023/08/26 00:08:30;;;;;;;16.00;12.32;;;;;;;;;;2090463;28;20072;-62
2023/08/26 00:09:31;;;;;;;17.63;13.10;;;;;;;;;;2090170;28;20060;-61
2023/08/26 00:10:32;;;;;;;22.38;12.73;;;;;;;;;;2090060;28;20135;-61
2023/08/26 00:11:32;;;;;;;16.33;13.88;;;;;;;;;;2089675;28;20044;-62
2023/08/26 00:12:33;;;;;;;14.95;13.32;;;;;;;;;;2089584;28;20044;-61
2023/08/26 00:13:34;;;;;;;16.38;13.32;;;;;;;;;;2090320;28;20393;-62
2023/08/26 00:14:34;;;;;;;15.70;13.95;;;;;;;;;;2090561;28;20029;-61
2023/08/26 00:15:35;;;;;;;16.58;14.43;;;;;;;;;;2090897;28;20041;-60
2023/08/26 00:16:36;;;;;;;18.25;14.38;;;;;;;;;;2090391;28;20045;-61
2023/08/26 00:17:38;;;;;;;17.90;13.77;;;;;;;;;;2090419;28;20056;-63
2023/08/26 00:18:38;;;;;;;18.00;12.40;;;;;;;;;;2090917;28;20037;-62
2023/08/26 00:19:39;;;;;;;16.80;12.45;;;;;;;;;;2090304;28;20056;-63
2023/08/26 00:20:40;;;;;;;15.13;11.60;;;;;;;;;;2090198;28;20393;-64
2023/08/26 00:21:41;;;;;;;18.20;12.07;;;;;;;;;;2090746;28;20460;-62
2023/08/26 00:22:42;;;;;;;16.63;12.95;;;;;;;;;;2090469;28;20033;-62
2023/08/26 00:23:42;;;;;;;17.17;13.60;;;;;;;;;;2090687;28;20048;-61
2023/08/26 00:24:43;;;;;;;15.13;12.35;;;;;;;;;;2090532;28;20040;-62
2023/08/26 00:25:44;;;;;;;14.35;11.57;;;;;;;;;;2090352;28;20052;-60
2023/08/26 00:26:45;;;;;;;13.73;12.25;;;;;;;;;;2090440;28;20036;-61
2023/08/26 00:27:45;;;;;;;16.02;11.95;;;;;;;;;;2090365;28;20037;-62
2023/08/26 00:28:46;;;;;;;15.88;11.55;;;;;;;;;;2089245;28;20075;-61
2023/08/26 00:29:47;;;;;;;16.50;12.18;;;;;;;;;;2089466;28;20052;-62
2023/08/26 00:30:56;;;;;;;14.68;12.82;;;;;;;;;;2089861;28;20400;-61
2023/08/26 00:31:56;;;;;;;16.02;11.70;;;;;;;;;;2082975;28;20045;-61
2023/08/26 00:32:59;;;;;;;16.48;12.90;;;;;;;;;;2081472;28;20476;-59
2023/08/26 00:34:02;;;;;;;15.65;12.90;;;;;;;;;;2089707;28;20072;-61
2023/08/26 00:35:03;;;;;;;15.30;12.93;;;;;;;;;;2089474;28;20041;-62
2023/08/26 00:36:04;;;;;;;15.60;12.85;;;;;;;;;;2081406;28;20093;-59
2023/08/26 00:37:05;;;;;;;17.05;12.40;;;;;;;;;;2089046;28;20472;-59
2023/08/26 00:38:06;;;;;;;17.88;12.90;;;;;;;;;;2090340;28;20401;-59
2023/08/26 00:39:06;;;;;;;16.13;13.52;;;;;;;;;;2089703;28;20045;-59
2023/08/26 00:40:07;;;;;;;14.82;12.38;;;;;;;;;;2089551;28;20035;-61
2023/08/26 00:41:08;;;;;;;15.88;13.07;;;;;;;;;;2089731;28;20045;-61
2023/08/26 00:42:09;;;;;;;16.05;12.18;;;;;;;;;;2089909;28;20049;-61
2023/08/26 00:43:10;;;;;;;15.82;12.38;;;;;;;;;;2089808;28;20067;-62
2023/08/26 00:44:12;;;;;;;15.20;13.10;;;;;;;;;;2081372;28;20045;-61
2023/08/26 00:45:13;;;;;;;15.68;11.50;;;;;;;;;;2088897;28;20113;-62
2023/08/26 00:46:14;;;;;;;21.73;13.55;;;;;;;;;;2081061;28;20047;-60
2023/08/26 00:47:14;;;;;;;13.35;11.95;;;;;;;;;;2080977;28;20041;-61
2023/08/26 00:48:15;;;;;;;15.45;11.80;;;;;;;;;;2081056;28;20045;-62
2023/08/26 00:49:17;;;;;;;15.95;12.05;;;;;;;;;;2081337;28;20045;-61
2023/08/26 00:50:17;;;;;;;14.50;12.57;;;;;;;;;;2089916;28;20041;-60
2023/08/26 00:51:19;;;;;;;15.13;13.15;;;;;;;;;;2089443;28;20048;-58
2023/08/26 00:52:20;;;;;;;16.83;13.10;;;;;;;;;;2089771;28;20036;-61
2023/08/26 00:53:21;;;;;;;15.23;13.23;;;;;;;;;;2081302;28;20397;-61
2023/08/26 00:54:22;;;;;;;15.30;13.68;;;;;;;;;;2073195;28;20042;-61
2023/08/26 00:55:22;;;;;;;17.75;13.45;;;;;;;;;;2089559;28;20029;-61
2023/08/26 00:56:23;;;;;;;15.88;12.73;;;;;;;;;;2080384;28;20044;-61
2023/08/26 00:57:24;;;;;;;17.67;12.63;;;;;;;;;;2081306;28;20042;-61
2023/08/26 00:58:25;;;;;;;16.02;13.35;;;;;;;;;;2089499;28;20447;-60
2023/08/26 00:59:25;;;;;;;16.05;11.65;;;;;;;;;;2089326;28;20049;-61
2023/08/26 01:00:26;;;;;;;16.13;12.55;;;;;;;;;;2089561;28;20047;-60
2023/08/26 01:01:27;;;;;;;16.02;12.07;;;;;;;;;;2081698;28;20037;-60
2023/08/26 01:02:28;;;;;;;13.52;11.30;;;;;;;;;;2081257;28;20060;-61
2023/08/26 01:03:29;;;;;;;16.90;12.07;;;;;;;;;;2081220;28;20041;-60
2023/08/26 01:04:30;;;;;;;16.50;12.80;;;;;;;;;;2081148;28;20045;-61
2023/08/26 01:05:31;;;;;;;13.95;11.57;;;;;;;;;;2081127;28;20095;-60
2023/08/26 01:06:32;;;;;;;15.65;12.15;;;;;;;;;;2081261;28;20099;-61
2023/08/26 01:07:33;;;;;;;18.33;12.80;;;;;;;;;;2081516;28;20041;-61
2023/08/26 01:08:34;;;;;;;15.73;12.38;;;;;;;;;;2080566;28;20060;-61
2023/08/26 01:09:37;;;;;;;13.75;11.30;;;;;;;;;;2089515;28;20477;-61
2023/08/26 01:10:41;;;;;;;16.15;11.38;;;;;;;;;;2090081;28;20044;-61
2023/08/26 01:12:00;;;;;;;14.68;11.30;;;;;;;;;;2089333;28;20100;-60
2023/08/26 01:13:02;;;;;;;15.20;12.75;;;;;;;;;;2089731;28;20049;-60
2023/08/26 01:14:08;;;;;;;17.63;12.13;;;;;;;;;;2089690;28;20041;-60
2023/08/26 01:15:10;;;;;;;14.77;12.30;;;;;;;;;;2089468;28;20477;-60
2023/08/26 01:16:11;;;;;;;17.50;12.70;;;;;;;;;;2089173;28;20063;-60
2023/08/26 01:17:12;;;;;;;17.65;12.98;;;;;;;;;;2089483;28;20040;-60
2023/08/26 01:18:13;;;;;;;17.02;13.75;;;;;;;;;;2081362;28;20042;-60
2023/08/26 01:19:21;;;;;;;15.52;12.70;;;;;;;;;;2073511;28;20044;-60
2023/08/26 01:20:22;;;;;;;15.13;12.15;;;;;;;;;;2082061;28;20049;-61
2023/08/26 01:21:23;;;;;;;17.45;13.73;;;;;;;;;;2088930;28;20049;-60
2023/08/26 01:22:24;;;;;;;15.82;13.38;;;;;;;;;;2081399;28;20485;-60
2023/08/26 01:23:36;;;;;;;15.40;12.77;;;;;;;;;;2073417;28;20050;-60
2023/08/26 01:24:39;;;;;;;15.98;12.88;;;;;;;;;;2082624;28;20088;-59
2023/08/26 01:25:40;;;;;;;16.75;13.48;;;;;;;;;;2089083;28;20049;-58
2023/08/26 01:26:41;;;;;;;14.93;12.75;;;;;;;;;;2089692;28;20037;-61
2023/08/26 01:27:41;;;;;;;14.20;12.38;;;;;;;;;;2081154;28;20143;-60
2023/08/26 01:28:42;;;;;;;16.75;12.18;;;;;;;;;;2089504;28;20032;-58
2023/08/26 01:29:43;;;;;;;18.42;12.75;;;;;;;;;;2088941;28;20037;-60
2023/08/26 01:30:44;;;;;;;13.73;11.82;;;;;;;;;;2081477;28;20037;-60
2023/08/26 01:31:47;;;;;;;15.65;11.48;;;;;;;;;;2072981;28;20038;-60
2023/08/26 01:32:47;;;;;;;14.10;12.63;;;;;;;;;;2080973;28;20040;-60
2023/08/26 01:33:48;;;;;;;13.52;12.10;;;;;;;;;;2089530;28;20082;-60
2023/08/26 01:34:53;;;;;;;14.82;11.60;;;;;;;;;;2090156;28;20102;-60
2023/08/26 01:35:56;;;;;;;13.98;11.60;;;;;;;;;;2089076;28;20417;-60
2023/08/26 01:36:57;;;;;;;14.73;11.55;;;;;;;;;;2089603;28;20052;-59
2023/08/26 01:37:57;;;;;;;13.18;10.95;;;;;;;;;;2081116;28;20056;-60
2023/08/26 01:38:58;;;;;;;11.05;9.55;;;;;;;;;;2080898;28;20075;-61
2023/08/26 01:39:59;;;;;;;13.48;9.23;;;;;;;;;;2089994;28;20095;-60
2023/08/26 01:41:00;;;;;;;17.33;9.60;;;;;;;;;;2089743;28;20527;-61
2023/08/26 01:42:01;;;;;;;11.73;9.38;;;;;;;;;;2091139;28;20029;-61
2023/08/26 01:43:05;;;;;;;12.30;9.90;;;;;;;;;;2082579;28;20038;-60
2023/08/26 01:44:07;;;;;;;12.93;9.68;;;;;;;;;;2082717;28;20049;-60
2023/08/26 01:45:08;;;;;;;14.73;9.05;;;;;;;;;;2082583;28;20037;-60
2023/08/26 01:46:08;;;;;;;10.25;9.18;;;;;;;;;;2074834;28;20473;-61
2023/08/26 01:47:09;;;;;;;14.13;10.20;;;;;;;;;;2090686;28;20053;-60
2023/08/26 01:48:10;;;;;;;12.15;10.07;;;;;;;;;;2090937;28;20048;-58
2023/08/26 01:49:11;;;;;;;11.77;9.30;;;;;;;;;;2090844;28;20040;-60
2023/08/26 01:50:12;;;;;;;12.93;9.95;;;;;;;;;;2091024;28;20037;-60
2023/08/26 01:51:13;;;;;;;11.82;10.07;;;;;;;;;;2091441;28;20083;-60
2023/08/26 01:52:15;;;;;;;12.98;10.70;;;;;;;;;;2090795;28;20068;-59
2023/08/26 01:53:16;;;;;;;11.63;9.27;;;;;;;;;;2082046;28;20121;-58
2023/08/26 01:54:17;;;;;;;16.15;9.40;;;;;;;;;;2091260;28;20053;-58
2023/08/26 01:55:18;;;;;;;12.93;9.45;;;;;;;;;;2091119;28;20037;-59
2023/08/26 01:56:19;;;;;;;12.25;9.15;;;;;;;;;;2090870;28;20055;-60
2023/08/26 01:57:19;;;;;;;14.80;8.52;;;;;;;;;;2082570;28;20045;-58
2023/08/26 01:58:20;;;;;;;11.18;9.48;;;;;;;;;;2082535;28;20081;-60
2023/08/26 01:59:21;;;;;;;14.57;10.63;;;;;;;;;;2082289;28;20054;-60
2023/08/26 02:00:22;;;;;;;12.32;10.07;;;;;;;;;;2090557;28;20045;-60
2023/08/26 02:01:22;;;;;;;13.80;10.85;;;;;;;;;;2090921;28;20394;-60
2023/08/26 02:02:24;;;;;;;17.52;11.10;;;;;;;;;;2091174;28;20416;-59
2023/08/26 02:03:24;;;;;;;13.88;10.95;;;;;;;;;;2082594;28;20037;-60
2023/08/26 02:04:25;;;;;;;12.82;10.88;;;;;;;;;;2090713;28;20049;-59
2023/08/26 02:05:26;;;;;;;16.48;9.55;;;;;;;;;;2090731;28;20044;-59
2023/08/26 02:06:27;;;;;;;11.60;9.60;;;;;;;;;;2082518;28;20034;-59
2023/08/26 02:07:27;;;;;;;13.18;10.35;;;;;;;;;;2082852;28;20053;-60
2023/08/26 02:08:28;;;;;;;11.75;10.18;;;;;;;;;;2091043;28;20052;-59
2023/08/26 02:09:29;;;;;;;13.45;10.98;;;;;;;;;;2089975;28;20464;-59
2023/08/26 02:10:29;;;;;;;17.33;11.63;;;;;;;;;;2090521;28;20084;-60
2023/08/26 02:11:30;;;;;;;14.52;11.05;;;;;;;;;;2091354;28;20029;-59
2023/08/26 02:12:32;;;;;;;13.68;11.23;;;;;;;;;;2090602;28;20052;-59
2023/08/26 02:13:33;;;;;;;12.95;9.77;;;;;;;;;;2081973;28;20042;-60
2023/08/26 02:14:34;;;;;;;13.65;9.75;;;;;;;;;;2090657;28;20036;-59
2023/08/26 02:15:35;;;;;;;11.50;9.32;;;;;;;;;;2090758;28;20495;-59
2023/08/26 02:16:35;;;;;;;12.07;9.93;;;;;;;;;;2091063;28;20112;-60
2023/08/26 02:17:37;;;;;;;13.95;10.75;;;;;;;;;;2091349;28;20045;-60
2023/08/26 02:18:38;;;;;;;15.05;9.82;;;;;;;;;;2091316;28;20493;-61
2023/08/26 02:19:39;;;;;;;12.75;9.63;;;;;;;;;;2090425;28;20044;-60
2023/08/26 02:20:40;;;;;;;11.80;8.02;;;;;;;;;;2082227;28;20037;-61
2023/08/26 02:21:40;;;;;;;9.23;7.95;;;;;;;;;;2082661;28;20042;-60
2023/08/26 02:22:41;;;;;;;13.85;7.95;;;;;;;;;;2082762;28;20046;-60
2023/08/26 02:23:42;;;;;;;10.30;7.93;;;;;;;;;;2090679;28;20116;-59
2023/08/26 02:24:43;;;;;;;11.02;7.07;;;;;;;;;;2091309;28;20036;-61
2023/08/26 02:25:43;;;;;;;10.43;7.35;;;;;;;;;;2091468;28;20040;-61
2023/08/26 02:26:45;;;;;;;8.65;6.25;;;;;;;;;;2091430;28;20040;-60
2023/08/26 02:27:45;;;;;;;7.78;6.75;;;;;;;;;;2091198;28;20055;-61
2023/08/26 02:28:46;;;;;;;9.35;6.90;;;;;;;;;;2090851;28;20068;-60
2023/08/26 02:29:47;;;;;;;9.05;6.68;;;;;;;;;;2091064;28;20139;-61
2023/08/26 02:30:49;;;;;;;9.45;6.50;;;;;;;;;;2090520;28;20037;-61
2023/08/26 02:31:49;;;;;;;8.82;7.45;;;;;;;;;;2082348;28;20052;-61
2023/08/26 02:32:51;;;;;;;9.02;6.00;;;;;;;;;;2082370;28;20076;-61
2023/08/26 02:33:52;;;;;;;9.88;7.70;;;;;;;;;;2090751;28;20036;-62
2023/08/26 02:34:52;;;;;;;8.40;6.95;;;;;;;;;;2091070;28;20041;-61
2023/08/26 02:35:53;;;;;;;10.93;7.28;;;;;;;;;;2090256;28;20041;-61
2023/08/26 02:36:55;;;;;;;10.18;7.00;;;;;;;;;;2082452;28;20389;-62
2023/08/26 02:37:56;;;;;;;11.30;7.38;;;;;;;;;;2082661;28;20041;-60
2023/08/26 02:38:57;;;;;;;11.98;6.55;;;;;;;;;;2090702;28;20488;-61
2023/08/26 02:39:58;;;;;;;9.38;7.35;;;;;;;;;;2090571;28;20037;-61
2023/08/26 02:40:59;;;;;;;10.07;7.28;;;;;;;;;;2090838;28;20056;-61
2023/08/26 02:42:01;;;;;;;9.48;6.18;;;;;;;;;;2091257;28;20036;-61
2023/08/26 02:43:01;;;;;;;8.63;7.10;;;;;;;;;;2090229;28;20060;-61
2023/08/26 02:44:02;;;;;;;10.05;7.30;;;;;;;;;;2090480;28;20195;-61
2023/08/26 02:45:04;;;;;;;10.65;6.57;;;;;;;;;;2082600;28;20061;-61
2023/08/26 02:46:05;;;;;;;9.43;6.90;;;;;;;;;;2090499;28;20539;-61
2023/08/26 02:47:05;;;;;;;10.45;7.07;;;;;;;;;;2098186;28;20055;-61
2023/08/26 02:48:06;;;;;;;10.43;6.97;;;;;;;;;;2089830;28;20049;-61
2023/08/26 02:49:07;;;;;;;11.25;7.90;;;;;;;;;;2090187;28;20041;-62
2023/08/26 02:50:08;;;;;;;13.48;7.97;;;;;;;;;;2091273;28;20033;-62
2023/08/26 02:51:09;;;;;;;12.07;7.53;;;;;;;;;;2081636;28;20045;-62
2023/08/26 02:52:09;;;;;;;9.55;6.53;;;;;;;;;;2081925;28;20034;-63
2023/08/26 02:53:10;;;;;;;11.85;7.32;;;;;;;;;;2090749;28;20481;-63
2023/08/26 02:54:11;;;;;;;10.40;6.70;;;;;;;;;;2090853;28;20052;-62
2023/08/26 02:55:11;;;;;;;10.10;7.57;;;;;;;;;;2090339;28;20041;-62
2023/08/26 02:56:12;;;;;;;9.10;6.70;;;;;;;;;;2090573;28;20045;-62
2023/08/26 02:57:13;;;;;;;10.20;7.78;;;;;;;;;;2089287;28;20102;-61
2023/08/26 02:58:13;;;;;;;11.85;7.53;;;;;;;;;;2090298;28;20080;-62
2023/08/26 02:59:14;;;;;;;12.48;8.50;;;;;;;;;;2081859;28;20041;-62
2023/08/26 03:00:15;;;;;;;10.75;7.32;;;;;;;;;;2090055;28;20147;-61
2023/08/26 03:01:19;;;;;;;13.20;7.50;;;;;;;;;;2089998;28;20397;-62
2023/08/26 03:02:24;;;;;;;10.45;8.18;;;;;;;;;;2082980;28;20116;-61
2023/08/26 03:03:25;;;;;;;15.38;8.98;;;;;;;;;;2090709;28;20413;-62
2023/08/26 03:04:26;;;;;;;12.10;8.32;;;;;;;;;;2090162;28;20041;-62
2023/08/26 03:05:27;;;;;;;11.50;7.88;;;;;;;;;;2081996;28;20417;-61
2023/08/26 03:06:28;;;;;;;11.35;8.05;;;;;;;;;;2082397;28;20457;-61
2023/08/26 03:07:29;;;;;;;12.68;8.52;;;;;;;;;;2082120;28;20045;-61
2023/08/26 03:08:31;;;;;;;14.18;8.13;;;;;;;;;;2090261;28;20033;-60
2023/08/26 03:09:32;;;;;;;11.27;8.45;;;;;;;;;;2090150;28;20052;-61
2023/08/26 03:10:34;;;;;;;10.15;8.27;;;;;;;;;;2089693;28;20456;-60
2023/08/26 03:11:35;;;;;;;12.73;8.52;;;;;;;;;;2090904;28;20084;-60
2023/08/26 03:12:36;;;;;;;13.10;8.13;;;;;;;;;;2090884;28;20412;-60
2023/08/26 03:13:37;;;;;;;9.15;7.43;;;;;;;;;;2090604;28;20040;-61
2023/08/26 03:14:37;;;;;;;12.38;8.88;;;;;;;;;;2090819;28;20427;-60
2023/08/26 03:15:39;;;;;;;13.90;8.15;;;;;;;;;;2091184;28;20041;-60
2023/08/26 03:16:40;;;;;;;13.20;9.20;;;;;;;;;;2090924;28;20045;-60
2023/08/26 03:17:41;;;;;;;11.10;8.45;;;;;;;;;;2089940;28;20479;-61
2023/08/26 03:18:42;;;;;;;9.45;8.25;;;;;;;;;;2090574;28;20079;-61
2023/08/26 03:19:43;;;;;;;10.88;8.32;;;;;;;;;;2090216;28;20037;-61
2023/08/26 03:20:44;;;;;;;11.13;8.43;;;;;;;;;;2081773;28;20391;-60
2023/08/26 03:21:44;;;;;;;12.13;8.73;;;;;;;;;;2090651;28;20040;-61
2023/08/26 03:22:45;;;;;;;11.60;9.27;;;;;;;;;;2091153;28;20041;-59
2023/08/26 03:23:46;;;;;;;11.00;9.38;;;;;;;;;;2090504;28;20041;-60
2023/08/26 03:24:47;;;;;;;9.27;8.30;;;;;;;;;;2091136;28;20045;-61
2023/08/26 03:25:49;;;;;;;11.82;9.40;;;;;;;;;;2089758;28;20049;-62
2023/08/26 03:26:50;;;;;;;10.52;9.00;;;;;;;;;;2081902;28;20041;-61
2023/08/26 03:27:51;;;;;;;12.68;8.70;;;;;;;;;;2090278;28;20401;-61
2023/08/26 03:28:51;;;;;;;14.85;9.70;;;;;;;;;;2091295;28;20040;-62
2023/08/26 03:29:52;;;;;;;12.77;9.27;;;;;;;;;;2090904;28;20021;-61
2023/08/26 03:30:53;;;;;;;12.18;9.00;;;;;;;;;;2090782;28;20079;-62
2023/08/26 03:31:53;;;;;;;12.48;9.45;;;;;;;;;;2090186;28;20037;-61
2023/08/26 03:32:54;;;;;;;11.85;8.82;;;;;;;;;;2081854;28;20045;-62
2023/08/26 03:33:55;;;;;;;12.48;9.80;;;;;;;;;;2081856;28;20072;-61
2023/08/26 03:34:56;;;;;;;10.90;8.57;;;;;;;;;;2081969;28;20032;-60
2023/08/26 03:35:56;;;;;;;15.32;9.52;;;;;;;;;;2090716;28;20088;-60
2023/08/26 03:36:57;;;;;;;15.38;9.65;;;;;;;;;;2089807;28;20485;-61
2023/08/26 03:37:58;;;;;;;11.82;9.57;;;;;;;;;;2082154;28;20606;-61
2023/08/26 03:38:59;;;;;;;11.52;9.95;;;;;;;;;;2081812;28;20425;-60
2023/08/26 03:40:00;;;;;;;13.00;10.48;;;;;;;;;;2081815;28;20041;-58
2023/08/26 03:41:03;;;;;;;12.90;10.43;;;;;;;;;;2081961;28;20394;-61
2023/08/26 03:42:04;;;;;;;12.52;9.07;;;;;;;;;;2081899;28;20045;-60
2023/08/26 03:43:05;;;;;;;12.18;10.35;;;;;;;;;;2090139;28;20029;-60
2023/08/26 03:44:06;;;;;;;14.18;10.18;;;;;;;;;;2090153;28;20067;-60
2023/08/26 03:45:07;;;;;;;11.20;9.60;;;;;;;;;;2090136;28;20075;-60
2023/08/26 03:46:08;;;;;;;14.60;10.02;;;;;;;;;;2081722;28;20509;-60
2023/08/26 03:47:10;;;;;;;11.00;9.65;;;;;;;;;;2081954;28;20045;-60
2023/08/26 03:48:11;;;;;;;11.60;9.25;;;;;;;;;;2081710;28;20493;-59
2023/08/26 03:49:12;;;;;;;16.42;11.00;;;;;;;;;;2089968;28;20052;-60
2023/08/26 03:50:13;;;;;;;12.38;9.82;;;;;;;;;;2081912;28;20528;-60
2023/08/26 03:51:16;;;;;;;11.95;9.90;;;;;;;;;;2090106;28;20049;-61
2023/08/26 03:52:17;;;;;;;12.30;10.25;;;;;;;;;;2089398;28;20045;-61
2023/08/26 03:53:18;;;;;;;13.70;10.40;;;;;;;;;;2081319;28;20045;-61
2023/08/26 03:54:19;;;;;;;11.90;10.13;;;;;;;;;;2081501;28;20128;-61
2023/08/26 03:55:19;;;;;;;14.85;11.00;;;;;;;;;;2090209;28;20042;-61
2023/08/26 03:56:20;;;;;;;14.82;10.48;;;;;;;;;;2090114;28;20116;-60
2023/08/26 03:57:21;;;;;;;14.38;10.55;;;;;;;;;;2081747;28;20041;-60
2023/08/26 03:58:22;;;;;;;13.27;10.55;;;;;;;;;;2089776;28;20427;-62
2023/08/26 03:59:22;;;;;;;12.23;9.93;;;;;;;;;;2089857;28;20117;-61
2023/08/26 04:00:23;;;;;;;12.95;11.00;;;;;;;;;;2082073;28;20068;-60
2023/08/26 04:01:24;;;;;;;13.95;10.63;;;;;;;;;;2090094;28;20056;-61
2023/08/26 04:02:25;;;;;;;13.73;10.05;;;;;;;;;;2090099;28;20401;-61
2023/08/26 04:03:26;;;;;;;13.77;9.80;;;;;;;;;;2080812;28;20052;-61
2023/08/26 04:04:27;;;;;;;14.43;10.18;;;;;;;;;;2089738;28;20045;-60
2023/08/26 04:05:27;;;;;;;14.43;9.68;;;;;;;;;;2089577;28;20041;-60
2023/08/26 04:06:28;;;;;;;11.93;9.40;;;;;;;;;;2089954;28;20037;-61
2023/08/26 04:07:29;;;;;;;13.88;10.40;;;;;;;;;;2090017;28;20099;-60
2023/08/26 04:08:30;;;;;;;13.52;10.20;;;;;;;;;;2089732;28;20388;-60
2023/08/26 04:09:31;;;;;;;11.30;9.23;;;;;;;;;;2081579;28;20041;-60
2023/08/26 04:10:31;;;;;;;14.43;9.45;;;;;;;;;;2089984;28;20049;-61
2023/08/26 04:11:32;;;;;;;13.40;9.93;;;;;;;;;;2082242;28;20056;-60
2023/08/26 04:12:33;;;;;;;11.45;9.52;;;;;;;;;;2081678;28;20033;-60
2023/08/26 04:13:34;;;;;;;11.80;9.10;;;;;;;;;;2089826;28;20052;-60
2023/08/26 04:14:34;;;;;;;11.32;8.40;;;;;;;;;;2098087;28;20025;-60
2023/08/26 04:15:35;;;;;;;11.82;9.32;;;;;;;;;;2089509;28;20033;-60
2023/08/26 04:16:36;;;;;;;12.27;9.35;;;;;;;;;;2089929;28;20381;-61
2023/08/26 04:17:37;;;;;;;12.48;9.38;;;;;;;;;;2081799;28;20037;-60
2023/08/26 04:18:38;;;;;;;17.42;9.20;;;;;;;;;;2081830;28;20038;-60
2023/08/26 04:19:38;;;;;;;14.25;9.65;;;;;;;;;;2089769;28;20052;-60
2023/08/26 04:20:39;;;;;;;14.98;10.00;;;;;;;;;;2089922;28;20045;-61
2023/08/26 04:21:40;;;;;;;14.57;9.50;;;;;;;;;;2081552;28;20531;-60
2023/08/26 04:22:41;;;;;;;14.50;9.10;;;;;;;;;;2089774;28;20056;-60
2023/08/26 04:23:41;;;;;;;10.80;8.68;;;;;;;;;;2090622;28;20037;-60
2023/08/26 04:24:42;;;;;;;12.70;9.07;;;;;;;;;;2090061;28;20049;-60
2023/08/26 04:25:43;;;;;;;12.15;9.27;;;;;;;;;;2089976;28;20052;-60
2023/08/26 04:26:44;;;;;;;12.45;9.40;;;;;;;;;;2081384;28;20044;-60
2023/08/26 04:27:45;;;;;;;11.60;9.88;;;;;;;;;;2089484;28;20051;-60
2023/08/26 04:28:46;;;;;;;15.18;9.82;;;;;;;;;;2089579;28;20036;-60
2023/08/26 04:29:46;;;;;;;12.13;9.70;;;;;;;;;;2089757;28;20045;-61
2023/08/26 04:30:47;;;;;;;12.63;9.50;;;;;;;;;;2090036;28;20048;-60
2023/08/26 04:31:48;;;;;;;14.07;9.82;;;;;;;;;;2082183;28;20041;-60
2023/08/26 04:32:49;;;;;;;13.40;10.00;;;;;;;;;;2090026;28;20485;-60
2023/08/26 04:33:51;;;;;;;12.88;10.25;;;;;;;;;;2098059;28;20436;-60
2023/08/26 04:34:52;;;;;;;12.82;10.35;;;;;;;;;;2089856;28;20492;-60
2023/08/26 04:35:52;;;;;;;12.82;9.20;;;;;;;;;;2089643;28;20112;-60
2023/08/26 04:36:54;;;;;;;12.98;9.77;;;;;;;;;;2089766;28;20041;-61
2023/08/26 04:37:55;;;;;;;10.95;8.82;;;;;;;;;;2081383;28;20083;-61
2023/08/26 04:38:57;;;;;;;12.30;9.60;;;;;;;;;;2089696;28;20032;-61
2023/08/26 04:39:58;;;;;;;12.27;7.82;;;;;;;;;;2089273;28;20063;-60
2023/08/26 04:40:58;;;;;;;11.15;7.90;;;;;;;;;;2081374;28;20045;-61
2023/08/26 04:42:00;;;;;;;12.40;8.50;;;;;;;;;;2081582;28;20033;-61
2023/08/26 04:43:03;;;;;;;10.43;7.82;;;;;;;;;;2089256;28;20049;-61
2023/08/26 04:44:05;;;;;;;9.10;7.93;;;;;;;;;;2089932;28;20489;-61
2023/08/26 04:45:06;;;;;;;12.18;8.30;;;;;;;;;;2089918;28;20388;-61
2023/08/26 04:46:06;;;;;;;11.18;7.93;;;;;;;;;;2089587;28;20045;-61
2023/08/26 04:47:07;;;;;;;10.15;7.57;;;;;;;;;;2081265;28;20045;-60
2023/08/26 04:48:09;;;;;;;11.48;7.60;;;;;;;;;;2089745;28;20052;-61
2023/08/26 04:49:09;;;;;;;11.23;9.13;;;;;;;;;;2089309;28;20051;-59
2023/08/26 04:50:11;;;;;;;10.27;8.18;;;;;;;;;;2081435;28;20051;-58
2023/08/26 04:51:12;;;;;;;13.52;8.23;;;;;;;;;;2081066;28;20521;-60
2023/08/26 04:52:13;;;;;;;13.75;9.27;;;;;;;;;;2081319;28;20050;-60
2023/08/26 04:53:14;;;;;;;11.60;9.25;;;;;;;;;;2073456;28;20045;-60
2023/08/26 04:54:15;;;;;;;10.90;8.90;;;;;;;;;;2073100;28;20433;-60
2023/08/26 04:55:15;;;;;;;10.02;8.93;;;;;;;;;;2080947;28;20041;-61
2023/08/26 04:56:16;;;;;;;12.70;9.73;;;;;;;;;;2089593;28;20068;-60
2023/08/26 04:57:17;;;;;;;12.75;9.57;;;;;;;;;;2089503;28;20370;-60
2023/08/26 04:58:20;;;;;;;12.00;10.00;;;;;;;;;;2081351;28;20433;-60
2023/08/26 04:59:21;;;;;;;11.45;9.27;;;;;;;;;;2089635;28;20551;-60
2023/08/26 05:00:21;;;;;;;13.75;9.40;;;;;;;;;;2088851;28;20110;-60
2023/08/26 05:01:22;;;;;;;11.13;9.77;;;;;;;;;;2089548;28;20041;-60
2023/08/26 05:02:24;;;;;;;12.23;9.73;;;;;;;;;;2089470;28;20045;-60
2023/08/26 05:03:25;;;;;;;10.93;9.68;;;;;;;;;;2081267;28;20393;-61
2023/08/26 05:04:25;;;;;;;12.48;9.65;;;;;;;;;;2089510;28;20531;-60
2023/08/26 05:05:26;;;;;;;12.95;10.57;;;;;;;;;;2089728;28;20045;-60
2023/08/26 05:06:27;;;;;;;11.88;10.35;;;;;;;;;;2089712;28;20041;-60
2023/08/26 05:07:29;;;;;;;13.98;11.32;;;;;;;;;;2089277;28;20048;-60
2023/08/26 05:08:30;;;;;;;13.57;10.25;;;;;;;;;;2089196;28;20045;-60
2023/08/26 05:09:31;;;;;;;14.55;10.25;;;;;;;;;;2088952;28;20045;-60
2023/08/26 05:10:32;;;;;;;10.43;8.70;;;;;;;;;;2089417;28;20037;-61
2023/08/26 05:11:33;;;;;;;12.82;8.88;;;;;;;;;;2081276;28;20443;-60
2023/08/26 05:12:33;;;;;;;13.40;9.27;;;;;;;;;;2089730;28;20033;-60
2023/08/26 05:13:35;;;;;;;12.43;9.32;;;;;;;;;;2088807;28;20048;-60
2023/08/26 05:14:36;;;;;;;11.48;9.30;;;;;;;;;;2081356;28;20056;-60
2023/08/26 05:15:36;;;;;;;10.88;8.77;;;;;;;;;;2091287;28;20033;-60
2023/08/26 05:16:38;;;;;;;11.10;8.85;;;;;;;;;;2091736;28;20041;-60
2023/08/26 05:17:39;;;;;;;12.85;8.35;;;;;;;;;;2092037;28;20025;-60
2023/08/26 05:18:40;;;;;;;10.10;6.78;;;;;;;;;;2091878;28;20098;-61
2023/08/26 05:19:40;;;;;;;10.43;7.85;;;;;;;;;;2091905;28;20032;-60
2023/08/26 05:20:47;;;;;;;10.15;7.82;;;;;;;;;;2090074;28;20041;-60
2023/08/26 05:21:47;;;;;;;11.10;7.22;;;;;;;;;;2083935;28;20029;-60
2023/08/26 05:22:48;;;;;;;11.32;8.05;;;;;;;;;;2082876;28;20389;-60
2023/08/26 05:23:49;;;;;;;10.55;7.38;;;;;;;;;;2091233;28;20036;-59
2023/08/26 05:24:50;;;;;;;12.52;7.68;;;;;;;;;;2090986;28;20044;-60
2023/08/26 05:25:52;;;;;;;12.30;8.18;;;;;;;;;;2082465;28;20033;-59
2023/08/26 05:26:55;;;;;;;8.85;7.13;;;;;;;;;;2082959;28;20501;-59
2023/08/26 05:27:55;;;;;;;13.60;7.22;;;;;;;;;;2082578;28;20041;-59
2023/08/26 05:28:57;;;;;;;9.90;7.63;;;;;;;;;;2083161;28;20067;-59
2023/08/26 05:29:58;;;;;;;9.35;7.28;;;;;;;;;;2082784;28;20034;-60
2023/08/26 05:30:59;;;;;;;10.68;7.65;;;;;;;;;;2082557;28;20041;-60
2023/08/26 05:32:00;;;;;;;11.75;7.78;;;;;;;;;;2083190;28;20563;-60
2023/08/26 05:33:01;;;;;;;9.30;7.30;;;;;;;;;;2090978;28;20041;-59
2023/08/26 05:34:02;;;;;;;9.27;7.72;;;;;;;;;;2091230;28;20041;-59
2023/08/26 05:35:03;;;;;;;9.00;7.35;;;;;;;;;;2083225;28;20504;-60
2023/08/26 05:36:04;;;;;;;9.00;6.55;;;;;;;;;;2082476;28;20038;-59
2023/08/26 05:37:05;;;;;;;11.32;7.38;;;;;;;;;;2091391;28;20559;-59
2023/08/26 05:38:06;;;;;;;10.73;7.90;;;;;;;;;;2091784;28;20385;-59
2023/08/26 05:39:06;;;;;;;10.25;7.07;;;;;;;;;;2090750;28;20047;-59
2023/08/26 05:40:07;;;;;;;11.10;6.90;;;;;;;;;;2082751;28;20037;-60
2023/08/26 05:41:08;;;;;;;9.50;6.65;;;;;;;;;;2082831;28;20037;-59
2023/08/26 05:42:09;;;;;;;9.18;6.53;;;;;;;;;;2090989;28;20044;-59
2023/08/26 05:43:10;;;;;;;6.57;5.88;;;;;;;;;;2090848;28;20076;-58
2023/08/26 05:44:11;;;;;;;7.72;6.43;;;;;;;;;;2082697;28;20045;-59
2023/08/26 05:45:12;;;;;;;9.02;6.20;;;;;;;;;;2082705;28;20049;-59
2023/08/26 05:46:12;;;;;;;7.57;6.78;;;;;;;;;;2082642;28;20038;-59
2023/08/26 05:47:13;;;;;;;8.35;6.20;;;;;;;;;;2091072;28;20120;-59
2023/08/26 05:48:14;;;;;;;10.48;6.30;;;;;;;;;;2090616;28;20056;-60
2023/08/26 05:49:14;;;;;;;9.43;6.25;;;;;;;;;;2090574;28;20409;-59
2023/08/26 05:50:15;;;;;;;9.43;6.30;;;;;;;;;;2082658;28;20501;-59
2023/08/26 05:51:16;;;;;;;7.88;6.07;;;;;;;;;;2082599;28;20056;-59
2023/08/26 05:52:17;;;;;;;10.55;6.22;;;;;;;;;;2090682;28;20052;-59
2023/08/26 05:53:18;;;;;;;7.97;5.68;;;;;;;;;;2090659;28;20546;-59
2023/08/26 05:54:19;;;;;;;7.43;5.90;;;;;;;;;;2090718;28;20051;-60
2023/08/26 05:55:20;;;;;;;8.45;6.05;;;;;;;;;;2090910;28;20128;-60
2023/08/26 05:56:21;;;;;;;8.65;6.07;;;;;;;;;;2090383;28;20045;-59
2023/08/26 05:57:21;;;;;;;8.55;5.88;;;;;;;;;;2090886;28;20076;-60
2023/08/26 05:58:22;;;;;;;6.85;5.40;;;;;;;;;;2081786;28;20057;-60
2023/08/26 05:59:23;;;;;;;6.75;5.63;;;;;;;;;;2083254;28;20048;-59